Hauptseite
METAR-TAF:

METAR-TAF

Flughäfen :

Flugplatz Ansbach-Katterbach

Ansbach, Deutschland

Breite: 49-19N, Länge: 010-38E, Höhe: 467 m

Beobachtung

Neuester Wetterbericht von vor 15 Minuten, um 04:56 UTC
Wind 5 kt aus Ost/Nordost
Temperatur 12°C
Luftfeuchtigkeit 71%
Luftdruck 1017 hPa
Sichtweite 10 km oder mehr
Himmel klar

METAR: ETEB 210456Z AUTO 07005KT 9999 CLR 12/07 A3003 RMK AO2 SLP173 T01170074 $

Zeit: 07:11 (05:11 UTC)


TAF: fehlend

Wetterbeobachtungen und Prognosen von mehr als 4000 Flughäfen (METAR und TAF Bericht).

Die verfügbaren Stationen werden durch gelbe und rote Markierungen auf der Karte dargestellt.

Führen Sie die Maus auf sie, um den Namen der Station zu sehen.

Darauf klicken, um die Beobachtung von Wetterbeobachtungen und Prognosen zu sehen.

Um die Karte zu ändern : klicken Sie auf den grünen Tasten mit einem schwarzen Kreuz Zum Vergrößern, auf den grünen Button mit einem Gedankenstrich zu verkleinern, oder auf die grünen Pfeile für benachbarte Karten.


METAR-TAF: